Time;durP1;ratioP1;P1;durP2;ratioP2;P2;SDS_P1;SDS_P2;PMS_P1;PMS_P2;Temp;Humidity;BMP_temperature;BMP_pressure;BME280_temperature;BME280_humidity;BME280_pressure;Samples;Min_cycle;Max_cycle;Signal;HPM_P1;HPM_P2
2023/11/04 00:01:07;;;;;;;;;4.00;3.00;;;;;13.82;100.00;98770.56;4994287;28;45256;-67
2023/11/04 00:03:33;;;;;;;;;4.00;2.00;;;;;13.83;100.00;98771.41;4996796;28;65523;-69
2023/11/04 00:05:58;;;;;;;;;4.00;3.00;;;;;13.83;100.00;98771.41;4996853;28;64259;-67
2023/11/04 00:08:23;;;;;;;;;3.00;3.00;;;;;13.92;100.00;98768.44;4996496;28;70298;-68
2023/11/04 00:10:52;;;;;;;;;2.00;1.00;;;;;13.93;100.00;98764.00;4997570;28;45209;-69
2023/11/04 00:13:18;;;;;;;;;5.00;2.67;;;;;13.94;100.00;98758.63;4997288;28;45724;-67
2023/11/04 00:15:44;;;;;;;;;8.67;2.67;;;;;13.92;100.00;98741.91;4996236;28;73346;-69
2023/11/04 00:18:10;;;;;;;;;2.67;2.00;;;;;13.96;100.00;98748.84;4997618;28;45423;-67
2023/11/04 00:20:35;;;;;;;;;4.00;2.33;;;;;13.94;100.00;98739.19;4996138;28;67175;-67
2023/11/04 00:23:00;;;;;;;;;2.00;2.00;;;;;13.93;100.00;98740.13;4996391;28;73112;-67
2023/11/04 00:25:26;;;;;;;;;3.00;3.00;;;;;13.89;100.00;98736.72;4995714;28;45458;-68
2023/11/04 00:27:51;;;;;;;;;3.67;2.00;;;;;13.85;100.00;98749.22;4996011;28;65780;-67
2023/11/04 00:30:16;;;;;;;;;3.00;1.00;;;;;13.82;100.00;98740.50;4978339;28;66275;-68
2023/11/04 00:32:42;;;;;;;;;2.00;2.00;;;;;13.84;100.00;98742.16;4996778;28;45965;-67
2023/11/04 00:35:07;;;;;;;;;3.67;1.67;;;;;13.81;100.00;98736.13;4995967;28;69542;-66
2023/11/04 00:37:33;;;;;;;;;2.00;2.00;;;;;13.76;100.00;98738.09;4996989;28;45317;-67
2023/11/04 00:40:05;;;;;;;;;4.67;2.00;;;;;13.74;100.00;98734.59;4997129;28;45357;-68
2023/11/04 00:42:31;;;;;;;;;6.00;2.00;;;;;13.72;100.00;98733.78;4980377;28;45804;-67
2023/11/04 00:44:56;;;;;;;;;3.00;3.00;;;;;13.71;100.00;98734.72;4996542;28;45224;-67
2023/11/04 00:47:21;;;;;;;;;2.67;2.67;;;;;13.69;100.00;98741.84;4997467;28;45331;-67
2023/11/04 00:49:47;;;;;;;;;4.00;2.00;;;;;13.66;100.00;98736.66;4995933;28;67219;-67
2023/11/04 00:52:12;;;;;;;;;3.67;3.00;;;;;13.60;100.00;98735.09;4995515;28;75889;-67
2023/11/04 00:54:38;;;;;;;;;6.00;2.00;;;;;13.57;100.00;98738.72;4996690;28;45419;-70
2023/11/04 00:57:04;;;;;;;;;3.00;2.00;;;;;13.58;100.00;98727.22;4996813;28;45347;-66
2023/11/04 00:59:29;;;;;;;;;3.00;2.00;;;;;13.50;100.00;98723.06;4991283;28;45407;-68
2023/11/04 01:01:54;;;;;;;;;4.00;1.33;;;;;13.50;100.00;98709.81;4994960;28;74375;-67
2023/11/04 01:04:20;;;;;;;;;10.00;3.00;;;;;13.48;100.00;98715.19;4995869;28;69577;-67
2023/11/04 01:06:45;;;;;;;;;2.33;2.00;;;;;13.47;100.00;98705.47;4996720;28;45383;-68
2023/11/04 01:09:12;;;;;;;;;3.33;3.00;;;;;13.45;100.00;98703.81;4995758;28;63267;-67
2023/11/04 01:11:37;;;;;;;;;3.33;1.00;;;;;13.46;100.00;98706.41;4996620;28;45840;-66
2023/11/04 01:14:03;;;;;;;;;5.00;3.67;;;;;13.42;100.00;98703.91;4979048;28;45543;-67
2023/11/04 01:16:28;;;;;;;;;2.33;2.00;;;;;13.44;100.00;98695.00;4979428;28;45374;-67
2023/11/04 01:18:54;;;;;;;;;5.00;2.00;;;;;13.43;100.00;98697.72;4990923;28;58593;-67
2023/11/04 01:21:20;;;;;;;;;4.00;3.00;;;;;13.42;100.00;98694.16;4996269;28;45772;-67
2023/11/04 01:23:45;;;;;;;;;3.00;2.00;;;;;13.45;100.00;98702.03;4996506;28;45304;-67
2023/11/04 01:26:10;;;;;;;;;2.00;2.00;;;;;13.44;100.00;98697.66;4996689;28;45442;-67
2023/11/04 01:28:36;;;;;;;;;3.00;1.00;;;;;13.44;100.00;98687.03;4978321;28;49816;-67
2023/11/04 01:31:01;;;;;;;;;2.67;2.00;;;;;13.42;100.00;98683.56;4994802;28;75135;-68
2023/11/04 01:33:26;;;;;;;;;2.67;2.67;;;;;13.40;100.00;98685.41;4996344;28;45316;-66
2023/11/04 01:35:52;;;;;;;;;4.00;2.67;;;;;13.40;100.00;98666.00;4995846;28;52655;-68
2023/11/04 01:38:18;;;;;;;;;3.00;1.00;;;;;13.34;100.00;98680.31;4996799;28;45233;-67
2023/11/04 01:40:50;;;;;;;;;6.33;3.67;;;;;13.35;100.00;98679.41;4977668;28;73966;-67
2023/11/04 01:43:29;;;;;;;;;3.33;2.00;;;;;13.33;100.00;98682.13;4992140;28;45494;-67
2023/11/04 01:46:21;;;;;;;;;4.00;2.00;;;;;13.38;100.00;98667.84;4996439;28;45291;-69
2023/11/04 01:48:47;;;;;;;;;2.33;2.00;;;;;13.35;100.00;98658.19;4986615;28;45454;-68
2023/11/04 01:51:16;;;;;;;;;3.00;3.00;;;;;13.33;100.00;98662.69;4993504;28;45485;-68
2023/11/04 01:53:46;;;;;;;;;3.67;2.00;;;;;13.32;100.00;98660.97;4985980;28;45352;-67
2023/11/04 01:56:13;;;;;;;;;5.67;2.00;;;;;13.33;100.00;98670.66;4995771;28;45328;-67
2023/11/04 01:58:39;;;;;;;;;4.67;1.33;;;;;13.33;100.00;98666.22;4977389;28;45470;-67
2023/11/04 02:01:04;;;;;;;;;2.67;2.67;;;;;13.34;100.00;98664.41;4989680;28;63752;-67
2023/11/04 02:03:30;;;;;;;;;5.67;1.33;;;;;13.33;100.00;98660.06;4995641;28;45466;-67
2023/11/04 02:05:56;;;;;;;;;4.00;2.00;;;;;13.32;100.00;98659.19;4996176;28;45224;-69
2023/11/04 02:08:21;;;;;;;;;3.00;3.00;;;;;13.31;100.00;98657.44;4996142;28;45427;-67
2023/11/04 02:10:47;;;;;;;;;2.00;2.00;;;;;13.29;100.00;98655.78;4972811;28;47333;-67
2023/11/04 02:13:12;;;;;;;;;4.00;3.00;;;;;13.29;100.00;98635.44;4988610;28;67308;-67
2023/11/04 02:15:37;;;;;;;;;3.00;3.00;;;;;13.31;100.00;98645.97;4988381;28;45507;-70
2023/11/04 02:18:03;;;;;;;;;3.33;2.00;;;;;13.32;100.00;98627.38;4997069;28;60985;-69
2023/11/04 02:20:33;;;;;;;;;7.33;2.00;;;;;13.32;100.00;98613.25;4973627;28;46087;-67
2023/11/04 02:22:59;;;;;;;;;2.33;1.33;;;;;13.29;100.00;98600.97;4995163;28;45432;-67
2023/11/04 02:25:31;;;;;;;;;1.00;1.00;;;;;13.26;100.00;98595.81;4999255;28;45221;-67
2023/11/04 02:27:56;;;;;;;;;3.33;1.33;;;;;13.26;100.00;98597.56;4993239;28;45432;-67
2023/11/04 02:30:21;;;;;;;;;2.00;2.00;;;;;13.27;100.00;98594.00;4998745;28;45593;-67
2023/11/04 02:32:48;;;;;;;;;2.00;2.00;;;;;13.28;100.00;98583.34;4996389;28;71792;-67
2023/11/04 02:35:15;;;;;;;;;4.33;3.00;;;;;13.28;100.00;98566.59;4998776;28;45569;-67
2023/11/04 02:37:40;;;;;;;;;1.33;1.33;;;;;13.29;100.00;98569.16;4999271;28;45456;-67
2023/11/04 02:40:09;;;;;;;;;2.00;2.00;;;;;13.30;100.00;98555.00;4998434;28;46547;-69
2023/11/04 02:42:35;;;;;;;;;5.00;2.00;;;;;13.30;100.00;98551.47;4999014;28;45521;-66
2023/11/04 02:45:00;;;;;;;;;6.33;3.00;;;;;13.33;100.00;98539.00;4998504;28;45454;-68
2023/11/04 02:47:26;;;;;;;;;3.00;1.00;;;;;13.37;100.00;98529.16;4998033;28;64725;-69
2023/11/04 02:49:51;;;;;;;;;3.00;1.33;;;;;13.38;100.00;98528.22;4997652;28;74981;-68
2023/11/04 02:52:16;;;;;;;;;2.33;2.00;;;;;13.38;100.00;98530.00;4997528;28;74579;-67
2023/11/04 02:54:41;;;;;;;;;8.00;1.00;;;;;13.38;100.00;98514.97;4998021;28;66706;-69
2023/11/04 02:57:07;;;;;;;;;3.00;1.67;;;;;13.37;100.00;98523.84;4980513;28;58663;-68
2023/11/04 02:59:32;;;;;;;;;3.00;2.33;;;;;13.38;100.00;98520.28;4994772;28;72554;-67
2023/11/04 03:01:57;;;;;;;;;2.00;2.00;;;;;13.38;100.00;98508.81;4992470;28;72268;-67
2023/11/04 03:04:24;;;;;;;;;2.33;2.33;;;;;13.37;100.00;98497.34;4998856;28;45246;-70
2023/11/04 03:06:50;;;;;;;;;7.00;2.00;;;;;13.39;100.00;98498.13;4981812;28;45445;-67
2023/11/04 03:09:15;;;;;;;;;3.33;1.00;;;;;13.37;100.00;98484.09;4993635;28;73377;-67
2023/11/04 03:11:41;;;;;;;;;4.67;2.00;;;;;13.37;100.00;98476.13;4998602;28;45328;-67
2023/11/04 03:14:06;;;;;;;;;2.00;0.00;;;;;13.35;100.00;98467.34;4998613;28;45360;-67
2023/11/04 03:16:31;;;;;;;;;5.00;2.00;;;;;13.34;100.00;98477.09;4997937;28;63389;-67
2023/11/04 03:18:56;;;;;;;;;3.00;2.00;;;;;13.29;100.00;98463.16;4996782;28;67727;-66
2023/11/04 03:21:22;;;;;;;;;3.00;1.00;;;;;13.29;100.00;98462.31;4997010;28;72965;-66
2023/11/04 03:23:47;;;;;;;;;3.67;1.00;;;;;13.28;100.00;98455.28;4997510;28;62287;-67
2023/11/04 03:26:13;;;;;;;;;3.33;1.00;;;;;13.27;100.00;98456.19;4998554;28;45403;-67
2023/11/04 03:28:38;;;;;;;;;5.67;1.00;;;;;13.25;100.00;98440.34;4997925;28;45964;-70
2023/11/04 03:31:04;;;;;;;;;1.67;1.67;;;;;13.21;100.00;98438.75;4996754;28;72741;-69
2023/11/04 03:33:30;;;;;;;;;3.00;1.00;;;;;13.24;100.00;98437.75;4997876;28;45427;-69
2023/11/04 03:35:55;;;;;;;;;2.67;1.33;;;;;13.23;100.00;98425.44;4994423;28;45314;-66
2023/11/04 03:38:21;;;;;;;;;3.00;3.00;;;;;13.24;100.00;98430.66;4980573;28;74402;-69
2023/11/04 03:40:46;;;;;;;;;4.67;2.00;;;;;13.22;100.00;98427.22;4996573;28;45492;-70
2023/11/04 03:43:12;;;;;;;;;3.00;2.00;;;;;13.22;100.00;98423.72;4997626;28;45388;-68
2023/11/04 03:45:37;;;;;;;;;5.00;2.00;;;;;13.21;100.00;98416.63;4997914;28;45541;-67
2023/11/04 03:48:03;;;;;;;;;1.00;1.00;;;;;13.23;100.00;98417.47;4997629;28;49810;-66
2023/11/04 03:50:28;;;;;;;;;2.00;1.00;;;;;13.20;100.00;98417.56;4997874;28;45466;-69
2023/11/04 03:52:55;;;;;;;;;1.00;1.00;;;;;13.19;100.00;98406.09;4997202;28;66898;-67
2023/11/04 03:55:21;;;;;;;;;3.00;1.67;;;;;13.19;100.00;98403.44;4996524;28;45313;-67
2023/11/04 03:57:46;;;;;;;;;1.00;1.00;;;;;13.21;100.00;98398.06;4997573;28;45890;-67
2023/11/04 04:00:12;;;;;;;;;7.00;2.00;;;;;13.27;100.00;98395.25;4979887;28;45439;-67
2023/11/04 04:02:37;;;;;;;;;5.67;2.00;;;;;13.29;100.00;98388.09;4997589;28;45205;-69
2023/11/04 04:05:03;;;;;;;;;2.33;2.00;;;;;13.31;100.00;98386.22;4997591;28;45626;-69
2023/11/04 04:07:29;;;;;;;;;4.00;2.00;;;;;13.33;100.00;98371.16;4994850;28;46937;-69
2023/11/04 04:09:54;;;;;;;;;2.00;2.00;;;;;13.38;100.00;98366.53;4992786;28;71736;-69
2023/11/04 04:12:19;;;;;;;;;1.00;1.00;;;;;13.43;100.00;98358.41;4996465;28;45581;-69
2023/11/04 04:14:45;;;;;;;;;1.00;1.00;;;;;13.45;100.00;98345.94;4996891;28;64015;-67
2023/11/04 04:17:10;;;;;;;;;3.00;2.33;;;;;13.49;100.00;98326.34;4993910;28;47123;-69
2023/11/04 04:19:39;;;;;;;;;3.00;1.00;;;;;13.50;100.00;98307.72;4992446;28;70068;-69
2023/11/04 04:22:04;;;;;;;;;1.00;1.00;;;;;13.50;100.00;98302.41;4996069;28;65791;-67
2023/11/04 04:24:29;;;;;;;;;0.00;0.00;;;;;13.56;100.00;98294.19;4996414;28;67694;-67
2023/11/04 04:26:55;;;;;;;;;2.00;2.00;;;;;13.55;100.00;98281.88;4996143;28;74703;-69
2023/11/04 04:29:23;;;;;;;;;5.00;1.00;;;;;13.59;100.00;98272.88;4995890;28;66960;-66
2023/11/04 04:31:49;;;;;;;;;3.33;1.67;;;;;13.60;100.00;98256.03;4997116;28;45460;-68
2023/11/04 04:34:14;;;;;;;;;3.00;1.33;;;;;13.59;100.00;98254.31;4995896;28;45509;-69
2023/11/04 04:36:40;;;;;;;;;2.67;1.00;;;;;13.61;100.00;98249.78;4994876;28;71757;-67
2023/11/04 04:39:05;;;;;;;;;5.67;2.00;;;;;13.64;100.00;98248.81;4996553;28;65761;-67
2023/11/04 04:41:31;;;;;;;;;2.00;2.00;;;;;13.68;100.00;98246.88;4995743;28;68335;-68
2023/11/04 04:43:56;;;;;;;;;3.33;2.33;;;;;13.66;100.00;98232.84;4996969;28;45361;-67
2023/11/04 04:46:22;;;;;;;;;10.00;3.00;;;;;13.68;100.00;98202.66;4996910;28;46339;-67
2023/11/04 04:48:47;;;;;;;;;3.33;2.00;;;;;13.71;100.00;98206.97;4996901;28;45453;-69
2023/11/04 04:51:16;;;;;;;;;8.00;3.00;;;;;13.71;100.00;98209.63;4996505;28;55056;-67
2023/11/04 04:53:41;;;;;;;;;3.33;3.00;;;;;13.71;100.00;98205.19;4997085;28;45582;-67
2023/11/04 04:56:07;;;;;;;;;9.00;3.00;;;;;13.71;100.00;98218.44;4996769;28;47688;-68
2023/11/04 04:58:32;;;;;;;;;1.67;1.00;;;;;13.71;100.00;98215.78;4994367;28;61561;-66
2023/11/04 05:00:57;;;;;;;;;3.67;2.00;;;;;13.71;100.00;98199.88;4996346;28;53258;-68
2023/11/04 05:03:23;;;;;;;;;3.67;2.00;;;;;13.72;100.00;98190.13;4979070;28;45619;-70
2023/11/04 05:05:48;;;;;;;;;7.00;1.00;;;;;13.73;100.00;98194.50;4995368;28;75449;-67
2023/11/04 05:08:13;;;;;;;;;3.67;2.00;;;;;13.74;100.00;98209.47;4994033;28;73976;-68
2023/11/04 05:10:39;;;;;;;;;4.00;1.00;;;;;13.75;100.00;98193.53;4995251;28;45367;-69
2023/11/04 05:13:04;;;;;;;;;4.67;1.33;;;;;13.75;100.00;98166.13;4987198;28;63705;-68
2023/11/04 05:15:29;;;;;;;;;2.33;1.33;;;;;13.75;100.00;98164.34;4986957;28;45612;-69
2023/11/04 05:17:55;;;;;;;;;4.00;1.00;;;;;13.75;100.00;98163.50;4995614;28;72628;-67
2023/11/04 05:20:20;;;;;;;;;2.33;0.67;;;;;13.75;100.00;98163.50;5108529;22;45586;-68
2023/11/04 05:22:45;;;;;;;;;3.33;1.00;;;;;13.76;100.00;98165.22;4973322;28;67614;-66
2023/11/04 05:25:11;;;;;;;;;4.00;2.00;;;;;13.76;100.00;98160.75;4975191;28;47277;-67
2023/11/04 05:27:36;;;;;;;;;2.00;1.00;;;;;13.77;100.00;98178.38;4971590;28;45469;-68
2023/11/04 05:30:03;;;;;;;;;3.00;1.00;;;;;13.77;100.00;98183.69;4973222;28;45509;-70
2023/11/04 05:32:28;;;;;;;;;3.33;1.00;;;;;13.78;100.00;98166.84;4976885;28;45301;-66
2023/11/04 05:34:53;;;;;;;;;5.00;2.00;;;;;13.74;100.00;98167.03;4957670;28;75879;-67
2023/11/04 05:37:18;;;;;;;;;3.33;1.00;;;;;13.70;100.00;98169.00;4958642;28;59761;-67
2023/11/04 05:39:44;;;;;;;;;5.00;1.00;;;;;13.68;100.00;98148.75;4975570;28;67842;-66
2023/11/04 05:42:09;;;;;;;;;0.67;0.00;;;;;13.66;100.00;98140.03;4975686;28;67474;-67
2023/11/04 05:44:34;;;;;;;;;0.67;0.67;;;;;13.65;100.00;98123.25;4975312;28;75316;-67
2023/11/04 05:47:00;;;;;;;;;1.33;1.00;;;;;13.69;100.00;98131.91;4977526;28;52078;-68
2023/11/04 05:49:25;;;;;;;;;0.00;0.00;;;;;13.69;100.00;98116.91;4970240;28;63317;-68
2023/11/04 05:51:50;;;;;;;;;2.67;0.67;;;;;13.70;100.00;98108.00;4977159;28;68275;-68
2023/11/04 05:54:16;;;;;;;;;1.00;0.00;;;;;13.69;100.00;98100.09;4979129;28;70360;-70
2023/11/04 05:56:41;;;;;;;;;3.00;0.00;;;;;13.68;100.00;98093.94;4969695;28;70651;-66
2023/11/04 05:59:06;;;;;;;;;0.00;0.00;;;;;13.71;100.00;98077.91;4979033;28;65552;-67
2023/11/04 06:01:31;;;;;;;;;8.00;0.00;;;;;13.72;100.00;98086.72;4979724;28;45642;-68
2023/11/04 06:03:57;;;;;;;;;2.00;0.00;;;;;13.71;100.00;98071.75;4972391;28;69370;-67
2023/11/04 06:06:22;;;;;;;;;1.00;1.00;;;;;13.69;100.00;98058.56;4974761;28;72715;-67
2023/11/04 06:08:47;;;;;;;;;2.00;0.00;;;;;13.67;100.00;98048.94;4976578;28;60687;-68
2023/11/04 06:11:13;;;;;;;;;2.00;1.00;;;;;13.67;100.00;98048.94;4979173;28;55827;-68
2023/11/04 06:13:42;;;;;;;;;2.00;0.00;;;;;13.67;100.00;98041.84;4979702;28;45430;-66
2023/11/04 06:16:08;;;;;;;;;5.67;2.00;;;;;13.70;100.00;98020.50;4957037;28;45307;-67
2023/11/04 06:18:36;;;;;;;;;1.00;1.00;;;;;13.68;100.00;98008.22;4979833;28;45491;-69
2023/11/04 06:21:02;;;;;;;;;3.33;0.00;;;;;13.68;100.00;97994.97;4979168;28;45617;-66
2023/11/04 06:23:27;;;;;;;;;0.00;0.00;;;;;13.69;100.00;97988.72;4972085;28;47083;-67
2023/11/04 06:25:53;;;;;;;;;0.00;0.00;;;;;13.66;100.00;97970.34;4973324;28;73338;-67
2023/11/04 06:28:18;;;;;;;;;4.00;1.00;;;;;13.65;100.00;97963.31;4979226;28;45356;-67
2023/11/04 06:30:43;;;;;;;;;0.33;0.00;;;;;13.65;100.00;97945.63;4979005;28;56399;-66
2023/11/04 06:33:09;;;;;;;;;0.67;0.00;;;;;13.67;100.00;97940.22;4977953;28;72098;-66
2023/11/04 06:35:34;;;;;;;;;1.00;0.00;;;;;13.66;100.00;97931.41;4977358;28;68407;-67
2023/11/04 06:38:01;;;;;;;;;1.00;1.00;;;;;13.64;100.00;97933.28;4978325;28;69635;-67
2023/11/04 06:40:26;;;;;;;;;2.33;1.00;;;;;13.65;100.00;97928.84;4979580;28;45407;-66
2023/11/04 06:42:51;;;;;;;;;1.33;0.00;;;;;13.63;100.00;97919.19;4973688;28;75343;-67
2023/11/04 06:45:17;;;;;;;;;2.00;1.00;;;;;13.65;100.00;97902.34;4978278;28;72522;-69
2023/11/04 06:47:42;;;;;;;;;2.00;0.33;;;;;13.64;100.00;97885.56;4978716;28;45367;-67
2023/11/04 06:50:08;;;;;;;;;2.67;0.00;;;;;13.63;100.00;97866.16;4975305;28;60925;-67
2023/11/04 06:52:34;;;;;;;;;0.33;0.33;;;;;13.61;100.00;97849.44;4973350;28;45960;-69
2023/11/04 06:54:59;;;;;;;;;4.33;0.00;;;;;13.61;100.00;97843.28;4966236;28;45378;-66
2023/11/04 06:57:24;;;;;;;;;2.33;1.00;;;;;13.62;100.00;97826.44;4978549;28;45400;-69
2023/11/04 06:59:50;;;;;;;;;0.00;0.00;;;;;13.58;100.00;97814.25;4977023;28;52911;-67
2023/11/04 07:02:15;;;;;;;;;2.00;0.00;;;;;13.59;100.00;97806.25;4966637;28;69312;-67
2023/11/04 07:04:41;;;;;;;;;2.00;0.00;;;;;13.57;100.00;97805.44;4967679;28;66975;-69
2023/11/04 07:07:06;;;;;;;;;1.00;0.00;;;;;13.57;100.00;97794.84;4968439;28;45230;-67
2023/11/04 07:09:33;;;;;;;;;2.00;0.67;;;;;13.58;100.00;97786.00;4977939;28;46568;-67
2023/11/04 07:11:59;;;;;;;;;0.00;0.00;;;;;13.59;100.00;97763.84;4976879;28;45930;-69
2023/11/04 07:14:24;;;;;;;;;0.33;0.00;;;;;13.58;100.00;97754.19;4969715;28;45309;-69
2023/11/04 07:16:49;;;;;;;;;2.00;0.00;;;;;13.56;100.00;97733.97;4973323;28;66093;-67
2023/11/04 07:19:15;;;;;;;;;2.67;0.00;;;;;13.56;100.00;97716.25;4967402;28;45658;-67
2023/11/04 07:21:42;;;;;;;;;0.00;0.00;;;;;13.56;100.00;97716.25;4978492;28;46709;-67
2023/11/04 07:24:08;;;;;;;;;1.00;0.00;;;;;13.56;100.00;97696.84;4960949;28;45313;-67
2023/11/04 07:26:34;;;;;;;;;1.00;0.00;;;;;13.53;100.00;97684.63;4961395;28;45416;-67
2023/11/04 07:28:59;;;;;;;;;2.00;0.00;;;;;13.54;100.00;97672.22;4978492;28;45462;-66
2023/11/04 07:31:24;;;;;;;;;3.00;0.00;;;;;13.53;100.00;97652.81;4977615;28;45939;-66
2023/11/04 07:33:50;;;;;;;;;0.00;0.00;;;;;13.55;100.00;97658.03;4970929;28;70599;-67
2023/11/04 07:36:25;;;;;;;;;0.00;0.00;;;;;13.51;100.00;97652.03;4973701;28;68670;-69
2023/11/04 07:38:52;;;;;;;;;2.00;0.00;;;;;13.54;100.00;97646.56;4978607;28;45293;-68
2023/11/04 07:41:17;;;;;;;;;0.33;0.00;;;;;13.54;100.00;97635.13;4978124;28;46988;-66
2023/11/04 07:43:43;;;;;;;;;3.33;0.00;;;;;13.55;100.00;97623.56;4978244;28;45593;-68
2023/11/04 07:46:08;;;;;;;;;2.00;0.00;;;;;13.54;100.00;97625.38;4966749;28;45515;-66
2023/11/04 07:48:34;;;;;;;;;5.33;0.00;;;;;13.54;100.00;97609.47;4976272;28;66976;-66
2023/11/04 07:50:59;;;;;;;;;2.00;0.00;;;;;13.53;100.00;97585.66;4971509;28;59502;-66
2023/11/04 07:53:24;;;;;;;;;0.67;0.00;;;;;13.58;100.00;97573.91;4970125;28;71778;-67
2023/11/04 07:55:49;;;;;;;;;0.00;0.00;;;;;13.60;100.00;97553.47;4972220;28;46812;-68
2023/11/04 07:58:16;;;;;;;;;0.00;0.00;;;;;13.63;100.00;97563.03;4977583;28;61108;-69
2023/11/04 08:00:43;;;;;;;;;1.00;0.00;;;;;13.64;100.00;97570.06;4974589;28;47161;-68
2023/11/04 08:03:08;;;;;;;;;0.00;0.00;;;;;13.62;100.00;97564.84;4978002;28;45316;-67
2023/11/04 08:05:36;;;;;;;;;0.00;0.00;;;;;13.66;100.00;97559.38;4978074;28;45379;-69
2023/11/04 08:08:02;;;;;;;;;0.00;0.00;;;;;13.69;100.00;97553.88;4970267;28;45349;-67
2023/11/04 08:10:27;;;;;;;;;0.00;0.00;;;;;13.73;100.00;97528.94;4964600;28;47793;-67
2023/11/04 08:12:52;;;;;;;;;0.00;0.00;;;;;13.72;100.00;97498.91;4967392;28;73016;-69
2023/11/04 08:15:18;;;;;;;;;0.00;0.00;;;;;13.73;100.00;97491.81;4973197;28;49056;-67
2023/11/04 08:17:43;;;;;;;;;0.00;0.00;;;;;13.71;100.00;97486.59;4974560;28;64723;-68
2023/11/04 08:20:10;;;;;;;;;0.00;0.00;;;;;13.70;100.00;97479.59;4976036;28;74388;-66
2023/11/04 08:22:39;;;;;;;;;2.00;0.00;;;;;13.69;100.00;97467.28;4976879;28;45462;-66
2023/11/04 08:25:06;;;;;;;;;1.00;0.00;;;;;13.77;100.00;97461.53;4972636;28;45381;-66
2023/11/04 08:27:32;;;;;;;;;0.00;0.00;;;;;13.72;100.00;97469.75;4965708;28;45426;-69
2023/11/04 08:29:57;;;;;;;;;0.00;0.00;;;;;13.62;100.00;97474.69;4971683;28;47248;-69
2023/11/04 08:32:23;;;;;;;;;0.00;0.00;;;;;13.50;100.00;97475.38;4958821;28;45580;-69
2023/11/04 08:34:48;;;;;;;;;0.00;0.00;;;;;13.42;100.00;97460.81;4975733;28;45512;-69
2023/11/04 08:37:13;;;;;;;;;0.00;0.00;;;;;13.36;100.00;97448.75;4976285;28;57550;-68
2023/11/04 08:39:39;;;;;;;;;0.00;0.00;;;;;13.35;100.00;97439.97;4973321;28;76041;-72
2023/11/04 08:42:06;;;;;;;;;0.67;0.00;;;;;13.32;100.00;97455.19;4975152;28;45598;-69
2023/11/04 08:44:32;;;;;;;;;0.00;0.00;;;;;13.29;100.00;97452.69;4951350;28;45576;-69
2023/11/04 08:46:57;;;;;;;;;0.00;0.00;;;;;13.20;100.00;97464.59;4967238;28;45487;-69
2023/11/04 08:49:22;;;;;;;;;0.00;0.00;;;;;13.13;100.00;97454.44;4971520;28;75957;-68
2023/11/04 08:51:48;;;;;;;;;3.33;0.00;;;;;13.11;100.00;97446.56;4975037;28;45461;-69
2023/11/04 08:54:13;;;;;;;;;0.00;0.00;;;;;13.09;100.00;97437.84;4973135;28;46805;-68
2023/11/04 08:56:39;;;;;;;;;0.00;0.00;;;;;13.05;100.00;97439.81;4964702;28;45451;-71
2023/11/04 08:59:04;;;;;;;;;0.00;0.00;;;;;13.03;100.00;97425.78;4969409;28;47193;-69
2023/11/04 09:01:30;;;;;;;;;0.00;0.00;;;;;13.05;100.00;97425.72;4966135;28;63445;-70
2023/11/04 09:03:55;;;;;;;;;0.00;0.00;;;;;13.00;100.00;97414.50;4967908;28;64484;-69
2023/11/04 09:06:23;;;;;;;;;0.00;0.00;;;;;13.04;100.00;97416.88;4969335;28;45456;-69
2023/11/04 09:08:49;;;;;;;;;2.00;1.00;;;;;13.12;100.00;97411.19;4963887;28;66458;-71
2023/11/04 09:11:14;;;;;;;;;0.00;0.00;;;;;13.24;100.00;97394.66;4969636;28;45464;-67
2023/11/04 09:13:40;;;;;;;;;0.00;0.00;;;;;13.32;100.00;97412.81;4966612;28;45897;-67
2023/11/04 09:16:06;;;;;;;;;0.00;0.00;;;;;13.40;100.00;97399.97;4978842;28;63955;-68
2023/11/04 09:18:34;;;;;;;;;0.33;0.00;;;;;13.49;100.00;97394.16;4971655;28;46469;-67
2023/11/04 09:20:59;;;;;;;;;0.00;0.00;;;;;13.57;100.00;97389.28;4969312;28;45607;-67
2023/11/04 09:23:24;;;;;;;;;0.33;0.00;;;;;13.63;100.00;97396.91;4973236;28;45569;-68
2023/11/04 09:25:50;;;;;;;;;0.00;0.00;;;;;13.69;100.00;97371.84;4982881;28;65235;-68
2023/11/04 09:28:15;;;;;;;;;0.00;0.00;;;;;13.84;100.00;97386.00;4975078;28;46686;-68
2023/11/04 09:30:41;;;;;;;;;0.00;0.00;;;;;13.92;100.00;97388.22;4977453;28;45449;-68
2023/11/04 09:33:08;;;;;;;;;1.00;0.00;;;;;13.99;100.00;97378.94;4975769;28;45417;-66
2023/11/04 09:35:34;;;;;;;;;0.00;0.00;;;;;14.04;100.00;97380.41;4975931;28;45535;-68
2023/11/04 09:37:59;;;;;;;;;0.00;0.00;;;;;14.14;100.00;97381.56;4973237;28;62739;-68
2023/11/04 09:40:24;;;;;;;;;0.00;0.00;;;;;14.23;100.00;97379.34;4973318;28;72124;-67
2023/11/04 09:42:50;;;;;;;;;0.00;0.00;;;;;14.27;100.00;97372.88;4966080;28;69125;-66
2023/11/04 09:45:20;;;;;;;;;0.00;0.00;;;;;14.37;100.00;97366.06;4974505;28;45535;-66
2023/11/04 09:47:46;;;;;;;;;0.00;0.00;;;;;14.43;100.00;97360.41;4962625;28;46070;-65
2023/11/04 09:50:12;;;;;;;;;0.00;0.00;;;;;14.48;100.00;97354.84;4970586;28;57281;-67
2023/11/04 09:52:38;;;;;;;;;1.00;0.00;;;;;14.49;100.00;97353.91;4974537;28;45154;-68
2023/11/04 09:55:05;;;;;;;;;0.00;0.00;;;;;14.56;100.00;97358.75;4966608;28;45666;-66
2023/11/04 09:57:31;;;;;;;;;0.00;0.00;;;;;14.56;100.00;97347.28;4956861;28;45768;-66
2023/11/04 09:59:57;;;;;;;;;0.00;0.00;;;;;14.65;100.00;97341.44;4969757;28;45392;-69
2023/11/04 10:02:23;;;;;;;;;0.00;0.00;;;;;14.67;100.00;97332.41;4966690;28;46101;-67
2023/11/04 10:04:49;;;;;;;;;0.00;0.00;;;;;14.68;100.00;97326.13;4978189;28;45636;-65
2023/11/04 10:07:14;;;;;;;;;1.00;0.00;;;;;14.69;100.00;97324.34;4959472;28;75848;-67
2023/11/04 10:09:39;;;;;;;;;0.00;0.00;;;;;14.71;100.00;97318.94;4966828;28;68099;-67
2023/11/04 10:12:05;;;;;;;;;0.00;0.00;;;;;14.71;100.00;97313.63;4967931;28;45525;-66
2023/11/04 10:14:30;;;;;;;;;0.00;0.00;;;;;14.72;100.00;97313.53;4966754;28;45455;-65
2023/11/04 10:16:56;;;;;;;;;0.00;0.00;;;;;14.74;100.00;97322.25;4964120;28;45678;-67
2023/11/04 10:19:21;;;;;;;;;1.33;0.00;;;;;14.74;100.00;97311.63;4968751;28;69963;-67
2023/11/04 10:21:48;;;;;;;;;0.00;0.00;;;;;14.74;100.00;97338.19;4956242;28;45436;-67
2023/11/04 10:24:14;;;;;;;;;0.00;0.00;;;;;14.71;100.00;97314.50;4965887;28;45582;-66
2023/11/04 10:26:39;;;;;;;;;0.67;0.00;;;;;14.72;100.00;97308.22;4968080;28;46636;-66
2023/11/04 10:29:06;;;;;;;;;0.00;0.00;;;;;14.72;100.00;97307.38;4972691;28;71293;-67
2023/11/04 10:31:32;;;;;;;;;1.00;0.00;;;;;14.73;100.00;97303.75;4968413;28;45489;-68
2023/11/04 10:34:01;;;;;;;;;0.00;0.00;;;;;14.79;100.00;97290.94;4973958;28;45543;-69
2023/11/04 10:36:26;;;;;;;;;0.00;0.00;;;;;14.79;100.00;97276.81;4970015;28;46490;-67
2023/11/04 10:38:57;;;;;;;;;0.00;0.00;;;;;14.87;100.00;97291.34;4970490;28;71027;-69
2023/11/04 10:41:31;;;;;;;;;0.00;0.00;;;;;14.95;100.00;97288.19;4973609;28;45257;-66
2023/11/04 10:44:15;;;;;;;;;0.00;0.00;;;;;14.99;100.00;97267.59;4968843;28;45443;-67
2023/11/04 10:46:55;;;;;;;;;0.00;0.00;;;;;15.04;100.00;97257.53;4974159;28;45574;-65
2023/11/04 10:49:28;;;;;;;;;1.67;0.00;;;;;15.10;100.00;97243.84;4969555;28;45720;-67
2023/11/04 10:52:09;;;;;;;;;2.00;0.00;;;;;15.15;100.00;97231.09;4977641;28;45327;-66
2023/11/04 10:54:49;;;;;;;;;1.00;0.00;;;;;15.29;100.00;97231.06;4970003;28;45445;-66
2023/11/04 10:57:32;;;;;;;;;1.00;1.00;;;;;15.36;100.00;97228.84;4991959;28;46687;-65
2023/11/04 11:00:07;;;;;;;;;0.00;0.00;;;;;15.42;100.00;97204.50;4948749;28;46169;-65
2023/11/04 11:02:33;;;;;;;;;1.00;0.00;;;;;15.42;100.00;97212.50;4969878;28;46033;-65
2023/11/04 11:05:00;;;;;;;;;3.67;1.00;;;;;15.38;100.00;97272.97;4970211;28;45732;-68
2023/11/04 11:07:25;;;;;;;;;0.33;0.33;;;;;15.33;100.00;97274.22;4968361;28;75184;-65
2023/11/04 11:09:51;;;;;;;;;1.33;1.00;;;;;15.25;100.00;97297.81;4971703;28;45749;-66
2023/11/04 11:12:24;;;;;;;;;0.33;0.33;;;;;15.16;100.00;97283.28;4968286;28;45509;-66
2023/11/04 11:14:50;;;;;;;;;3.00;1.00;;;;;15.07;100.00;97283.88;4984130;28;45548;-68
2023/11/04 11:17:16;;;;;;;;;3.00;1.00;;;;;14.92;100.00;97301.66;4968099;28;49727;-68
2023/11/04 11:19:48;;;;;;;;;3.67;0.67;;;;;14.86;100.00;97299.38;4969936;28;45573;-68